Time;durP1;ratioP1;P1;durP2;ratioP2;P2;SDS_P1;SDS_P2;PMS_P1;PMS_P2;Temp;Humidity;BMP_temperature;BMP_pressure;BME280_temperature;BME280_humidity;BME280_pressure;Samples;Min_cycle;Max_cycle;Signal;HPM_P1;HPM_P2
2023/03/20 00:02:24;;;;;;;1.37;1.15;;;;;;;13.78;37.69;99911.25;5327119;26;34202;-88
2023/03/20 00:04:52;;;;;;;0.28;0.28;;;;;;;13.89;37.37;99907.13;5327551;26;33023;-88
2023/03/20 00:07:20;;;;;;;1.40;1.30;;;;;;;13.98;37.15;99902.19;5327309;26;33083;-88
2023/03/20 00:09:48;;;;;;;0.40;0.32;;;;;;;14.02;37.06;99906.38;5326980;26;32917;-86
2023/03/20 00:12:24;;;;;;;2.30;2.12;;;;;;;13.97;37.09;99903.13;5329511;26;33613;-86
2023/03/20 00:14:52;;;;;;;1.33;1.23;;;;;;;13.99;36.97;99897.72;5309061;26;32651;-86
2023/03/20 00:17:20;;;;;;;7.93;2.15;;;;;;;14.02;36.84;99903.72;5345483;26;33005;-86
2023/03/20 00:19:48;;;;;;;0.98;0.90;;;;;;;14.03;36.76;99901.91;5345376;26;35310;-86
2023/03/20 00:22:16;;;;;;;0.93;0.93;;;;;;;13.84;37.54;99902.94;5327588;26;33942;-86
2023/03/20 00:24:44;;;;;;;0.80;0.77;;;;;;;13.92;37.31;99909.63;5327422;26;33723;-86
2023/03/20 00:27:31;;;;;;;1.77;1.67;;;;;;;13.75;38.37;99914.06;5309328;26;32643;-86
2023/03/20 00:29:59;;;;;;;17.37;1.90;;;;;;;13.90;38.15;99917.66;5327791;26;34072;-86
2023/03/20 00:32:28;;;;;;;3.00;1.02;;;;;;;13.80;39.08;99913.81;5346940;26;33959;-85
2023/03/20 00:34:57;;;;;;;1.00;0.95;;;;;;;13.87;40.62;99911.69;5328545;26;33373;-87
2023/03/20 00:37:26;;;;;;;0.95;0.95;;;;;;;13.49;41.79;99910.19;5309772;26;33712;-87
2023/03/20 00:39:56;;;;;;;0.45;0.45;;;;;;;13.17;42.98;99908.34;5347618;26;33918;-87
2023/03/20 00:42:25;;;;;;;1.60;1.50;;;;;;;13.00;43.32;99917.19;5328118;26;32935;-87
2023/03/20 00:45:54;;;;;;;0.60;0.60;;;;;;;13.04;43.15;99922.25;5328495;26;32740;-88
2023/03/20 00:48:47;;;;;;;0.60;0.60;;;;;;;13.10;42.54;99914.91;5331844;26;34156;-86
2023/03/20 00:51:45;;;;;;;1.85;1.62;;;;;;;13.04;42.67;99909.00;5328959;26;34420;-87
2023/03/20 00:54:35;;;;;;;7.07;0.82;;;;;;;12.88;43.37;99905.44;5311878;26;34993;-87
2023/03/20 00:57:29;;;;;;;0.50;0.50;;;;;;;12.63;44.95;99915.53;5329229;26;33759;-87
2023/03/20 01:00:44;;;;;;;1.98;0.73;;;;;;;12.69;44.50;99913.47;5315777;26;34782;-87
2023/03/20 01:03:55;;;;;;;1.73;1.62;;;;;;;12.62;44.29;99908.53;5333440;26;33692;-87
2023/03/20 01:06:43;;;;;;;3.50;1.55;;;;;;;12.42;44.88;99912.19;5327426;26;32800;-87
2023/03/20 01:09:34;;;;;;;1.65;1.55;;;;;;;12.45;44.77;99918.19;5332497;26;33252;-87
2023/03/20 01:12:13;;;;;;;3.97;2.15;;;;;;;12.35;44.97;99914.28;5312230;26;33927;-87
2023/03/20 01:14:51;;;;;;;18.40;2.20;;;;;;;12.49;44.43;99910.97;5308989;26;34724;-86
2023/03/20 01:17:28;;;;;;;0.80;0.80;;;;;;;12.31;44.97;99915.38;5310983;26;33382;-87
2023/03/20 01:20:00;;;;;;;1.40;1.35;;;;;;;12.26;44.96;99917.37;5347029;26;33494;-87
2023/03/20 01:22:28;;;;;;;1.73;1.62;;;;;;;12.26;45.33;99912.94;5328212;26;33829;-87
2023/03/20 01:24:57;;;;;;;1.62;1.52;;;;;;;12.14;45.68;99908.22;5328303;26;32578;-86
2023/03/20 01:27:24;;;;;;;11.73;4.22;;;;;;;12.03;46.27;99905.25;5328508;26;33400;-87
2023/03/20 01:29:52;;;;;;;1.00;1.00;;;;;;;11.99;46.45;99899.25;5346080;26;33671;-87
2023/03/20 01:32:20;;;;;;;1.23;1.12;;;;;;;11.81;46.59;99905.38;5309526;26;32876;-86
2023/03/20 01:34:48;;;;;;;3.05;2.62;;;;;;;11.88;46.40;99906.84;5327930;26;33915;-86
2023/03/20 01:37:22;;;;;;;5.80;2.92;;;;;;;11.73;46.85;99907.53;5308951;26;32943;-87
2023/03/20 01:39:50;;;;;;;3.10;1.10;;;;;;;11.64;47.18;99903.53;5346692;26;33503;-86
2023/03/20 01:42:19;;;;;;;0.40;0.40;;;;;;;11.83;46.61;99900.91;5327567;26;32329;-86
2023/03/20 01:44:48;;;;;;;0.75;0.75;;;;;;;11.82;46.66;99900.94;5346037;26;34731;-86
2023/03/20 01:47:20;;;;;;;1.08;1.08;;;;;;;11.73;47.11;99897.81;5346599;26;33860;-86
2023/03/20 01:50:25;;;;;;;9.13;1.95;;;;;;;11.83;46.93;99905.34;5346893;26;32948;-86
2023/03/20 01:53:12;;;;;;;1.67;1.58;;;;;;;11.93;46.70;99888.09;5328370;26;34624;-86
2023/03/20 01:55:42;;;;;;;4.62;1.48;;;;;;;11.79;47.00;99904.59;5328324;26;33237;-86
2023/03/20 01:58:16;;;;;;;1.55;0.80;;;;;;;11.84;46.91;99904.41;5328031;26;33044;-86
2023/03/20 02:00:47;;;;;;;0.98;0.98;;;;;;;11.78;46.86;99902.87;5346699;26;32671;-87
2023/03/20 02:03:22;;;;;;;1.90;1.30;;;;;;;11.88;46.52;99896.25;5330689;26;35707;-86
2023/03/20 02:05:55;;;;;;;1.40;1.30;;;;;;;11.81;46.66;99892.16;5327995;26;33736;-86
2023/03/20 02:08:28;;;;;;;3.72;2.53;;;;;;;11.65;47.61;99889.38;5328478;26;33468;-86
2023/03/20 02:10:59;;;;;;;0.68;0.68;;;;;;;11.66;47.44;99900.81;5328386;26;32371;-85
2023/03/20 02:13:30;;;;;;;1.02;0.98;;;;;;;11.80;47.13;99898.38;5328673;26;34327;-85
2023/03/20 02:16:03;;;;;;;1.55;1.08;;;;;;;11.69;47.74;99893.59;5309992;26;34786;-86
2023/03/20 02:18:34;;;;;;;0.45;0.45;;;;;;;11.78;47.28;99887.88;5346980;26;34497;-85
2023/03/20 02:21:08;;;;;;;0.62;0.60;;;;;;;11.74;47.52;99890.72;5346227;26;33152;-84
2023/03/20 02:23:46;;;;;;;1.50;1.35;;;;;;;11.86;47.23;99882.22;5346245;26;34242;-85
2023/03/20 02:26:23;;;;;;;0.80;0.62;;;;;;;11.69;47.42;99884.81;5308957;26;34052;-84
2023/03/20 02:29:13;;;;;;;0.75;0.75;;;;;;;11.76;47.36;99886.22;5328256;26;34564;-85
2023/03/20 02:31:44;;;;;;;1.48;1.37;;;;;;;11.44;48.65;99885.06;5346072;26;32371;-85
2023/03/20 02:34:59;;;;;;;1.37;1.30;;;;;;;11.54;48.28;99878.44;5346795;26;33567;-85
2023/03/20 02:37:52;;;;;;;0.40;0.40;;;;;;;11.58;48.14;99890.56;5306728;26;33130;-85
2023/03/20 02:40:26;;;;;;;0.20;0.20;;;;;;;11.32;49.00;99875.91;5328243;26;32488;-85
2023/03/20 02:42:58;;;;;;;0.75;0.52;;;;;;;11.34;49.24;99876.69;5328127;26;32159;-86
2023/03/20 02:45:37;;;;;;;1.98;1.87;;;;;;;11.54;48.55;99874.00;5346302;26;34673;-85
2023/03/20 02:48:18;;;;;;;1.50;1.40;;;;;;;11.60;48.32;99861.44;5347088;26;33856;-85
2023/03/20 02:50:58;;;;;;;1.60;1.48;;;;;;;11.42;48.30;99866.63;5346548;26;33656;-84
2023/03/20 02:53:40;;;;;;;1.25;1.15;;;;;;;11.32;48.45;99867.97;5347047;26;33497;-84
2023/03/20 02:56:32;;;;;;;0.77;0.77;;;;;;;11.34;48.32;99863.47;5346526;26;33961;-84
2023/03/20 02:59:28;;;;;;;0.75;0.50;;;;;;;11.39;48.00;99861.47;5328001;26;33058;-84
2023/03/20 03:02:17;;;;;;;0.35;0.35;;;;;;;11.33;48.03;99872.34;5331843;26;34291;-85
2023/03/20 03:04:56;;;;;;;2.95;0.70;;;;;;;11.33;48.07;99874.13;5345448;26;34316;-85
2023/03/20 03:07:27;;;;;;;2.75;0.77;;;;;;;11.17;48.36;99873.97;5327617;26;32761;-85
2023/03/20 03:09:59;;;;;;;0.10;0.10;;;;;;;11.20;48.23;99872.06;5346003;26;33695;-85
2023/03/20 03:12:40;;;;;;;2.00;0.80;;;;;;;11.29;47.89;99876.03;5309685;26;33977;-85
2023/03/20 03:15:25;;;;;;;1.08;1.08;;;;;;;11.15;48.21;99878.44;5347277;26;33441;-86
2023/03/20 03:17:57;;;;;;;1.35;0.73;;;;;;;11.03;48.65;99886.00;5345990;26;33610;-85
2023/03/20 03:20:38;;;;;;;0.88;0.80;;;;;;;11.00;48.84;99888.78;5327684;26;33284;-85
2023/03/20 03:23:18;;;;;;;0.17;0.17;;;;;;;10.98;48.81;99895.06;5346323;26;34301;-84
2023/03/20 03:25:47;;;;;;;0.17;0.17;;;;;;;10.79;49.21;99895.00;5327927;26;33085;-85
2023/03/20 03:28:18;;;;;;;1.05;1.00;;;;;;;10.78;49.06;99893.31;5346123;26;34842;-85
2023/03/20 03:30:52;;;;;;;2.15;0.32;;;;;;;10.71;48.75;99897.13;5365746;26;33721;-86
2023/03/20 03:33:24;;;;;;;0.65;0.65;;;;;;;10.62;48.89;99895.72;5345541;26;33503;-85
2023/03/20 03:36:02;;;;;;;2.95;1.35;;;;;;;10.67;48.97;99895.53;5346179;26;32940;-85
2023/03/20 03:38:58;;;;;;;1.75;1.40;;;;;;;10.58;49.14;99895.91;5345829;26;34377;-84
2023/03/20 03:41:44;;;;;;;4.97;1.75;;;;;;;10.62;48.87;99900.13;5327764;26;34341;-84
2023/03/20 03:44:19;;;;;;;1.98;1.48;;;;;;;10.38;49.24;99889.69;5345506;26;34530;-84
2023/03/20 03:46:56;;;;;;;0.62;0.62;;;;;;;10.44;49.03;99892.09;5327523;26;33953;-83
2023/03/20 03:49:28;;;;;;;0.80;0.80;;;;;;;10.17;49.50;99898.47;5345939;26;33570;-84
2023/03/20 03:52:04;;;;;;;0.30;0.30;;;;;;;9.94;49.92;99896.75;5326921;26;33776;-84
2023/03/20 03:54:40;;;;;;;4.65;1.75;;;;;;;9.79;49.76;99906.12;5327804;26;33540;-84
2023/03/20 03:57:17;;;;;;;1.30;0.90;;;;;;;9.91;49.71;99904.75;5327929;26;33665;-83
2023/03/20 03:59:49;;;;;;;1.55;0.82;;;;;;;10.08;49.55;99909.37;5346277;26;33553;-83
2023/03/20 04:02:19;;;;;;;2.30;1.80;;;;;;;10.04;49.85;99905.16;5327854;26;34293;-83
2023/03/20 04:04:51;;;;;;;1.02;1.02;;;;;;;10.28;48.58;99906.81;5328667;26;33533;-83
2023/03/20 04:07:20;;;;;;;2.17;1.85;;;;;;;10.14;48.94;99903.84;5328427;26;32403;-85
2023/03/20 04:09:55;;;;;;;0.90;0.90;;;;;;;10.23;48.69;99914.91;5331641;26;34328;-84
2023/03/20 04:12:34;;;;;;;1.65;1.42;;;;;;;10.08;49.34;99912.03;5310088;26;33413;-84
2023/03/20 04:15:03;;;;;;;4.72;1.55;;;;;;;9.85;49.96;99913.78;5328776;26;32599;-84
2023/03/20 04:17:43;;;;;;;0.40;0.32;;;;;;;9.83;50.02;99923.53;5328643;26;33615;-84
2023/03/20 04:20:13;;;;;;;1.37;1.27;;;;;;;9.96;49.65;99921.25;5329183;26;33615;-84
2023/03/20 04:22:41;;;;;;;1.65;1.55;;;;;;;10.01;49.24;99920.16;5328875;26;34787;-83
2023/03/20 04:25:17;;;;;;;0.75;0.75;;;;;;;9.56;50.93;99929.84;5347005;26;33135;-84
2023/03/20 04:27:46;;;;;;;2.55;1.45;;;;;;;9.38;51.33;99931.38;5347029;26;33294;-84
2023/03/20 04:30:16;;;;;;;1.23;1.15;;;;;;;9.60;50.95;99923.56;5310653;26;33012;-85
2023/03/20 04:32:49;;;;;;;0.70;0.70;;;;;;;9.52;50.92;99934.38;5311634;26;33209;-85
2023/03/20 04:35:19;;;;;;;2.80;1.05;;;;;;;9.72;50.22;99933.63;5346886;26;33562;-84
2023/03/20 04:37:48;;;;;;;1.83;1.60;;;;;;;9.79;49.98;99923.72;5348121;26;34181;-83
2023/03/20 04:40:18;;;;;;;0.47;0.47;;;;;;;9.45;51.15;99928.47;5292005;26;34273;-85
2023/03/20 04:42:46;;;;;;;0.30;0.30;;;;;;;9.41;51.20;99926.88;5328653;26;32978;-85
2023/03/20 04:45:14;;;;;;;0.75;0.75;;;;;;;9.59;50.80;99921.81;5310140;26;33739;-83
2023/03/20 04:47:43;;;;;;;0.93;0.93;;;;;;;9.74;50.14;99921.25;5347140;26;34062;-83
2023/03/20 04:50:12;;;;;;;0.37;0.37;;;;;;;9.52;50.68;99921.19;5328493;26;32799;-83
2023/03/20 04:52:42;;;;;;;1.02;1.02;;;;;;;9.38;51.14;99915.56;5366717;26;33168;-83
2023/03/20 04:55:15;;;;;;;1.58;1.48;;;;;;;9.41;50.93;99918.09;5329453;26;32882;-85
2023/03/20 04:57:44;;;;;;;1.12;1.12;;;;;;;9.39;50.92;99920.78;5346371;26;32847;-85
2023/03/20 05:00:13;;;;;;;1.02;1.02;;;;;;;9.38;51.07;99923.47;5346059;26;33148;-82
2023/03/20 05:02:46;;;;;;;1.17;1.10;;;;;;;9.33;51.15;99926.28;5311364;26;33080;-83
2023/03/20 05:05:15;;;;;;;1.55;1.45;;;;;;;9.32;51.49;99936.91;5309957;26;33248;-83
2023/03/20 05:07:46;;;;;;;2.15;0.88;;;;;;;9.38;51.28;99934.03;5310013;26;32405;-82
2023/03/20 05:10:15;;;;;;;0.40;0.40;;;;;;;9.19;51.90;99932.06;5346819;26;33874;-82
2023/03/20 05:12:46;;;;;;;0.40;0.40;;;;;;;9.26;51.79;99929.19;5329076;26;34076;-82
2023/03/20 05:15:19;;;;;;;0.50;0.50;;;;;;;9.20;51.70;99935.53;5330487;26;33956;-82
2023/03/20 05:17:50;;;;;;;1.75;0.62;;;;;;;9.23;51.59;99943.34;5328297;26;33431;-82
2023/03/20 05:23:07;;;;;;;2.92;1.37;;;;;;;9.01;51.65;99952.91;5348723;26;34902;-84
2023/03/20 05:25:41;;;;;;;0.52;0.52;;;;;;;9.06;51.74;99950.97;5328749;26;35352;-84
2023/03/20 05:28:14;;;;;;;1.75;0.80;;;;;;;9.29;51.37;99953.66;5329279;26;33845;-84
2023/03/20 05:30:47;;;;;;;2.35;2.08;;;;;;;9.08;52.27;99957.94;5347072;26;34227;-84
2023/03/20 05:33:19;;;;;;;1.20;1.20;;;;;;;9.20;51.71;99951.34;5347485;26;34030;-83
2023/03/20 05:35:49;;;;;;;1.48;1.37;;;;;;;9.21;51.79;99953.94;5346816;26;33732;-84
2023/03/20 05:38:21;;;;;;;1.00;1.00;;;;;;;9.40;51.35;99953.25;5328275;26;31943;-83
2023/03/20 05:40:59;;;;;;;5.95;2.47;;;;;;;9.32;51.37;99955.34;5366529;26;33580;-83
2023/03/20 05:43:36;;;;;;;0.98;0.22;;;;;;;9.33;51.34;99960.53;5347365;26;34781;-84
2023/03/20 05:46:05;;;;;;;3.40;1.45;;;;;;;9.34;51.63;99953.50;5327806;26;32832;-83
2023/03/20 05:48:35;;;;;;;0.62;0.62;;;;;;;9.26;52.15;99961.69;5327768;26;33408;-84
2023/03/20 05:51:05;;;;;;;0.50;0.50;;;;;;;9.77;50.18;99958.03;5346899;26;33791;-84
2023/03/20 05:53:35;;;;;;;5.57;2.62;;;;;;;9.53;50.74;99967.72;5345844;26;34022;-83
2023/03/20 05:56:11;;;;;;;0.17;0.17;;;;;;;9.59;51.23;99969.25;5346925;26;34339;-83
2023/03/20 05:58:44;;;;;;;0.30;0.30;;;;;;;9.66;51.66;99973.41;5329762;26;33834;-84
2023/03/20 06:01:20;;;;;;;1.52;1.42;;;;;;;9.87;51.14;99974.38;5346592;26;34002;-83
2023/03/20 06:06:27;;;;;;;0.82;0.62;;;;;;;10.14;49.67;99975.09;5348362;26;33930;-84
2023/03/20 06:08:56;;;;;;;2.85;2.53;;;;;;;9.99;50.34;99977.41;5346431;26;33138;-84
2023/03/20 06:11:26;;;;;;;7.37;1.92;;;;;;;10.13;50.35;99976.88;5327461;26;33544;-84
2023/03/20 06:13:58;;;;;;;0.62;0.43;;;;;;;10.15;50.92;99982.94;5347071;26;34652;-83
2023/03/20 06:16:30;;;;;;;4.85;1.17;;;;;;;10.23;50.95;99982.66;5329392;26;32699;-84
2023/03/20 06:19:01;;;;;;;1.58;1.48;;;;;;;10.29;50.73;99984.22;5346737;26;32593;-83
2023/03/20 06:21:38;;;;;;;5.32;2.58;;;;;;;10.39;50.09;99978.50;5331181;26;34623;-84
2023/03/20 06:24:09;;;;;;;0.47;0.47;;;;;;;10.47;49.63;99981.69;5328732;26;33322;-83
2023/03/20 06:26:38;;;;;;;2.42;1.12;;;;;;;10.63;49.11;99975.78;5328398;26;33681;-84
2023/03/20 06:29:10;;;;;;;1.67;1.58;;;;;;;10.79;48.73;99981.31;5346692;26;34468;-84
2023/03/20 06:31:44;;;;;;;0.52;0.52;;;;;;;10.84;48.32;99979.34;5328677;26;35047;-84
2023/03/20 06:34:19;;;;;;;6.87;3.35;;;;;;;11.16;47.73;99988.56;5329866;26;33073;-84
2023/03/20 06:36:48;;;;;;;16.45;7.07;;;;;;;11.14;47.83;99988.59;5328525;26;33723;-86
2023/03/20 06:39:17;;;;;;;5.18;3.00;;;;;;;11.35;47.50;99986.81;5310419;26;32434;-85
2023/03/20 06:41:46;;;;;;;2.15;1.95;;;;;;;11.75;47.54;99979.75;5328914;26;34702;-85
2023/03/20 06:44:15;;;;;;;1.45;1.35;;;;;;;11.96;47.03;99976.16;5310703;26;34640;-85
2023/03/20 06:46:54;;;;;;;1.62;1.23;;;;;;;11.77;46.71;99983.16;5329267;26;32887;-85
2023/03/20 06:49:26;;;;;;;4.32;1.83;;;;;;;12.20;45.67;99975.91;5329916;26;33213;-85
2023/03/20 06:51:58;;;;;;;8.13;5.53;;;;;;;12.25;45.89;99974.78;5347566;26;33691;-85
2023/03/20 06:54:26;;;;;;;1.08;1.08;;;;;;;12.39;44.77;99968.81;5328432;26;32890;-85
2023/03/20 06:56:54;;;;;;;1.77;1.67;;;;;;;12.76;42.52;99974.94;5328200;26;33797;-85
2023/03/20 07:04:39;;;;;;;0.50;0.50;;;;;;;12.99;42.25;99979.94;5329661;26;34048;-85
2023/03/20 07:07:09;;;;;;;0.30;0.30;;;;;;;13.23;41.11;99982.31;5346596;26;33891;-85
2023/03/20 07:09:38;;;;;;;1.02;0.98;;;;;;;13.49;41.32;99978.31;5328826;26;33832;-85
2023/03/20 07:12:13;;;;;;;1.75;1.37;;;;;;;13.47;41.68;99983.66;5328547;26;33242;-85
2023/03/20 07:14:43;;;;;;;92.18;23.77;;;;;;;13.24;41.00;99979.56;5329774;26;34541;-85
2023/03/20 07:17:12;;;;;;;5.00;3.60;;;;;;;13.37;41.12;99986.91;5346084;26;32974;-86
2023/03/20 07:19:49;;;;;;;1.37;1.27;;;;;;;13.56;39.50;99993.81;5348180;26;33169;-85
2023/03/20 07:22:27;;;;;;;1.55;1.00;;;;;;;14.19;38.78;99981.56;5328279;26;34279;-86
2023/03/20 07:25:08;;;;;;;;;;;;;;;13.98;37.79;99981.81;5329700;26;32763;-85
2023/03/20 07:27:45;;;;;;;0.45;0.45;;;;;;;14.25;38.47;99975.94;5367064;26;33996;-85
2023/03/20 07:30:15;;;;;;;9.73;3.05;;;;;;;14.27;37.53;99979.34;5347764;26;34178;-86
2023/03/20 07:32:44;;;;;;;3.30;0.88;;;;;;;14.56;37.78;99983.03;5347563;26;34373;-85
2023/03/20 07:35:13;;;;;;;1.73;0.60;;;;;;;14.59;36.83;99978.41;5347214;26;34281;-85
2023/03/20 07:37:42;;;;;;;3.42;1.58;;;;;;;14.57;36.29;99980.31;5328556;26;32593;-87
2023/03/20 07:40:15;;;;;;;0.90;0.90;;;;;;;14.70;35.73;99974.28;5312417;26;32717;-87
2023/03/20 07:42:46;;;;;;;2.05;1.87;;;;;;;14.90;35.59;99971.31;5311490;26;33514;-87
2023/03/20 07:48:05;;;;;;;0.13;0.13;;;;;;;15.71;33.57;99986.84;5330701;26;32620;-87
2023/03/20 07:50:36;;;;;;;0.35;0.35;;;;;;;15.41;33.86;99979.78;5311382;26;32915;-87
2023/03/20 07:53:15;;;;;;;1.17;1.08;;;;;;;15.62;34.28;99980.28;5330994;26;32944;-87
2023/03/20 07:55:48;;;;;;;1.15;1.10;;;;;;;15.69;33.74;99988.78;5312366;26;33346;-88
2023/03/20 07:58:16;;;;;;;0.82;0.82;;;;;;;15.70;34.16;99986.00;5328864;26;32946;-88
2023/03/20 08:00:45;;;;;;;0.77;0.77;;;;;;;15.69;34.84;99988.78;5347331;26;32390;-88
2023/03/20 08:03:23;;;;;;;;;;;;;;;16.13;33.82;99991.31;5330406;26;33128;-88
2023/03/20 08:05:53;;;;;;;16.70;9.52;;;;;;;16.28;33.75;99986.81;5329450;26;33351;-87
2023/03/20 08:08:22;;;;;;;1.27;1.08;;;;;;;16.19;33.48;99988.28;5329584;26;33755;-89
2023/03/20 08:10:52;;;;;;;0.43;0.43;;;;;;;16.11;33.70;99988.75;5329858;26;32250;-87
2023/03/20 08:13:21;;;;;;;2.00;1.35;;;;;;;16.10;33.60;99992.38;5346999;26;32913;-87
2023/03/20 08:16:04;;;;;;;8.23;3.50;;;;;;;16.24;33.76;99990.62;5327265;26;34352;-83
2023/03/20 08:18:34;;;;;;;1.67;1.58;;;;;;;16.60;32.52;99988.22;5346304;26;33651;-83
2023/03/20 08:21:09;;;;;;;0.82;0.52;;;;;;;17.09;31.60;99979.69;5328001;26;33333;-83
2023/03/20 08:23:41;;;;;;;1.92;1.23;;;;;;;16.91;31.26;99980.06;5345106;26;34621;-83
2023/03/20 08:26:09;;;;;;;3.80;1.25;;;;;;;17.43;30.58;99977.38;5343501;26;34461;-83
2023/03/20 08:28:37;;;;;;;3.80;1.05;;;;;;;16.82;31.39;99981.53;5344203;26;33951;-83
2023/03/20 08:31:17;;;;;;;1.58;0.93;;;;;;;16.56;31.81;99986.72;5346207;26;32965;-83
2023/03/20 08:33:49;;;;;;;2.05;1.50;;;;;;;16.68;31.55;99979.75;5345328;26;33242;-83
2023/03/20 08:36:20;;;;;;;0.82;0.70;;;;;;;16.97;31.77;99985.84;5344252;26;33602;-82
2023/03/20 08:38:54;;;;;;;0.60;0.60;;;;;;;16.84;31.28;99991.13;5326880;26;34174;-83
2023/03/20 08:41:23;;;;;;;2.85;1.70;;;;;;;17.58;31.59;99984.31;5344122;26;32710;-83
2023/03/20 08:43:51;;;;;;;2.42;0.70;;;;;;;17.65;31.02;99977.56;5326252;26;33936;-83
2023/03/20 08:46:20;;;;;;;1.08;0.98;;;;;;;17.82;31.39;99986.25;5344710;26;33819;-83
2023/03/20 08:48:50;;;;;;;2.08;1.92;;;;;;;18.27;29.52;99978.56;5344654;26;34007;-83
2023/03/20 08:51:22;;;;;;;2.87;2.67;;;;;;;18.22;31.00;99986.91;5344751;26;33378;-84
2023/03/20 08:53:51;;;;;;;0.70;0.70;;;;;;;18.51;30.37;99987.44;5326175;26;33051;-84
2023/03/20 08:56:19;;;;;;;0.82;0.82;;;;;;;18.06;32.21;99989.00;5325378;26;32783;-84
2023/03/20 08:58:54;;;;;;;1.45;1.40;;;;;;;18.35;31.23;99993.06;5325524;26;32341;-82
2023/03/20 09:01:23;;;;;;;1.52;1.40;;;;;;;18.53;30.74;99995.38;5345084;26;33365;-83
2023/03/20 09:04:12;;;;;;;1.67;1.50;;;;;;;18.15;32.40;99991.84;5313040;26;32987;-84
2023/03/20 09:06:46;;;;;;;6.68;1.00;;;;;;;17.87;32.33;100002.81;5308453;26;33994;-84
2023/03/20 09:09:14;;;;;;;0.95;0.93;;;;;;;18.32;32.24;99998.63;5307807;26;33716;-84
2023/03/20 09:11:42;;;;;;;1.70;1.15;;;;;;;18.21;32.34;100000.37;5325760;26;34616;-84
2023/03/20 09:14:18;;;;;;;18.87;4.65;;;;;;;18.61;32.06;99991.19;5345079;26;34501;-84
2023/03/20 09:16:47;;;;;;;10.98;1.15;;;;;;;18.42;31.93;100001.53;5326469;26;33831;-84
2023/03/20 09:19:17;;;;;;;0.22;0.22;;;;;;;18.68;31.74;99995.13;5326458;26;33334;-84
2023/03/20 09:21:48;;;;;;;0.85;0.85;;;;;;;18.85;30.89;99995.69;5326927;26;32785;-85
2023/03/20 09:24:18;;;;;;;2.72;2.15;;;;;;;18.63;31.36;99997.25;5326537;26;33002;-85
2023/03/20 09:26:46;;;;;;;2.47;1.30;;;;;;;18.52;31.33;99994.53;5326644;26;33025;-84
2023/03/20 09:29:14;;;;;;;0.73;0.73;;;;;;;18.88;31.67;99998.97;5326731;26;33200;-84
2023/03/20 09:31:44;;;;;;;1.15;1.10;;;;;;;18.35;31.41;99992.22;5327237;26;32743;-84
2023/03/20 09:34:12;;;;;;;2.40;1.90;;;;;;;18.57;30.98;99996.88;5326708;26;33226;-83
2023/03/20 09:36:44;;;;;;;4.37;1.85;;;;;;;18.46;31.35;99991.44;5326321;26;33782;-83
2023/03/20 09:39:19;;;;;;;3.10;1.05;;;;;;;18.32;31.97;99997.78;5346025;26;34697;-84
2023/03/20 09:41:48;;;;;;;3.10;1.17;;;;;;;18.95;31.89;99986.00;5325958;26;32873;-84
2023/03/20 09:44:34;;;;;;;2.42;1.20;;;;;;;19.01;30.88;99980.19;5310389;26;34256;-83
2023/03/20 09:47:30;;;;;;;0.77;0.77;;;;;;;18.90;31.75;99988.19;5364258;26;33774;-82
2023/03/20 09:50:22;;;;;;;1.02;0.95;;;;;;;19.34;29.60;99987.47;5343203;26;33945;-83
2023/03/20 09:52:55;;;;;;;0.73;0.68;;;;;;;19.14;31.55;99985.47;5343418;26;32667;-80
2023/03/20 09:55:31;;;;;;;0.30;0.30;;;;;;;19.45;29.75;99987.47;5324893;26;34332;-81
2023/03/20 09:58:03;;;;;;;1.23;0.65;;;;;;;19.54;30.21;99993.09;5342873;26;33589;-81
2023/03/20 10:00:34;;;;;;;3.33;1.85;;;;;;;19.69;28.79;99987.41;5343299;26;34013;-83
2023/03/20 10:03:31;;;;;;;0.52;0.52;;;;;;;19.83;30.29;99989.00;5324971;26;31972;-80
2023/03/20 10:06:08;;;;;;;3.28;1.20;;;;;;;19.47;28.92;99987.38;5362720;26;33504;-79
2023/03/20 10:08:38;;;;;;;8.77;1.60;;;;;;;19.62;29.18;99991.56;5343606;26;33846;-78
2023/03/20 10:11:09;;;;;;;0.65;0.43;;;;;;;20.07;28.96;99980.00;5324471;26;33744;-79
2023/03/20 10:13:54;;;;;;;1.48;1.10;;;;;;;20.14;28.92;99987.44;5343588;26;33922;-79
2023/03/20 10:16:40;;;;;;;3.00;2.10;;;;;;;19.92;29.22;99988.28;5325620;26;33905;-80
2023/03/20 10:19:20;;;;;;;1.33;1.12;;;;;;;19.77;29.03;99988.66;5324571;26;32521;-79
2023/03/20 10:22:01;;;;;;;133.43;21.77;;;;;;;19.45;29.49;99984.78;5342881;26;32553;-80
2023/03/20 10:24:36;;;;;;;9.70;3.97;;;;;;;19.56;30.30;99985.78;5325046;26;32821;-79
2023/03/20 10:27:33;;;;;;;1.30;1.20;;;;;;;19.73;30.05;99979.16;5343769;26;34874;-80
2023/03/20 10:30:38;;;;;;;1.85;1.45;;;;;;;20.18;28.56;99967.44;5334829;26;34779;-79
2023/03/20 10:33:23;;;;;;;0.80;0.80;;;;;;;20.31;29.39;99975.31;5339390;26;33090;-80
2023/03/20 10:36:24;;;;;;;3.70;1.75;;;;;;;20.63;27.27;99959.31;5362836;26;34540;-79
2023/03/20 10:39:15;;;;;;;4.32;1.80;;;;;;;19.88;29.27;99969.87;5325075;26;33411;-85
2023/03/20 10:44:38;;;;;;;3.30;1.87;;;;;;;19.72;29.34;99972.94;5344777;26;33607;-86
2023/03/20 10:47:12;;;;;;;1.80;1.70;;;;;;;19.74;29.15;99972.81;5325010;26;32368;-86
2023/03/20 10:49:52;;;;;;;1.02;1.00;;;;;;;20.18;29.27;99967.44;5325290;26;32533;-85
2023/03/20 10:52:31;;;;;;;3.40;1.42;;;;;;;19.87;28.70;99963.69;5325167;26;34076;-86
2023/03/20 10:55:17;;;;;;;10.50;2.33;;;;;;;19.67;28.82;99962.59;5344638;26;33254;-86
2023/03/20 10:57:53;;;;;;;1.60;1.27;;;;;;;19.91;28.28;99959.78;5343396;26;33010;-86
2023/03/20 11:00:24;;;;;;;0.77;0.77;;;;;;;19.99;28.42;99960.97;5325501;26;35006;-85
2023/03/20 11:02:55;;;;;;;4.43;1.95;;;;;;;20.15;29.04;99953.41;5325735;26;33643;-86
2023/03/20 11:05:30;;;;;;;1.87;1.50;;;;;;;20.07;28.61;99948.66;5342944;26;34622;-85
2023/03/20 11:08:11;;;;;;;0.60;0.60;;;;;;;20.40;28.44;99949.59;5327519;26;34645;-86
2023/03/20 11:10:43;;;;;;;9.55;2.10;;;;;;;20.36;27.87;99942.75;5323317;26;32545;-85
2023/03/20 11:13:26;;;;;;;9.40;1.27;;;;;;;20.25;28.33;99937.44;5343621;26;33930;-86
2023/03/20 11:15:56;;;;;;;3.87;2.03;;;;;;;20.45;27.72;99942.00;5343358;26;33493;-85
2023/03/20 11:18:26;;;;;;;1.58;1.42;;;;;;;20.52;28.13;99937.88;5324301;26;32766;-86
2023/03/20 11:21:07;;;;;;;0.40;0.30;;;;;;;19.99;28.38;99945.78;5344152;26;34496;-86
2023/03/20 11:23:40;;;;;;;1.20;1.10;;;;;;;20.16;28.57;99944.41;5324582;26;33340;-86
2023/03/20 11:26:27;;;;;;;2.78;2.15;;;;;;;20.23;27.99;99937.56;5343870;26;34737;-85
2023/03/20 11:28:57;;;;;;;1.17;1.17;;;;;;;20.51;27.63;99936.19;5324291;26;32739;-85
2023/03/20 11:31:34;;;;;;;3.77;2.47;;;;;;;19.91;28.85;99938.34;5343147;26;33395;-84
2023/03/20 11:34:12;;;;;;;1.40;1.30;;;;;;;20.23;28.04;99926.00;5325458;26;33113;-87
2023/03/20 11:36:56;;;;;;;1.17;1.02;;;;;;;20.45;27.78;99925.91;5362950;26;34244;-86
2023/03/20 11:39:58;;;;;;;2.22;1.52;;;;;;;19.79;28.92;99933.94;5327884;26;33548;-87
2023/03/20 11:42:29;;;;;;;0.70;0.70;;;;;;;19.63;28.91;99938.84;5362797;26;33977;-88
2023/03/20 11:45:00;;;;;;;0.60;0.60;;;;;;;19.77;29.05;99927.88;5343132;26;33731;-88
2023/03/20 11:47:34;;;;;;;2.28;1.48;;;;;;;19.94;28.48;99929.22;5343817;26;34118;-88
2023/03/20 11:50:25;;;;;;;2.17;1.65;;;;;;;20.38;27.45;99927.41;5343857;26;33427;-88
2023/03/20 11:52:55;;;;;;;0.65;0.65;;;;;;;19.87;29.39;99934.19;5324855;26;32582;-87
2023/03/20 11:55:35;;;;;;;0.88;0.80;;;;;;;20.04;28.07;99932.84;5343660;26;33419;-90
2023/03/20 11:58:04;;;;;;;2.08;1.87;;;;;;;20.32;28.05;99930.59;5342944;26;33534;-88
2023/03/20 12:00:38;;;;;;;0.90;0.90;;;;;;;20.26;28.87;99921.22;5344121;26;33066;-87
2023/03/20 12:03:31;;;;;;;3.83;2.67;;;;;;;20.28;28.13;99923.78;5325907;26;34141;-89
2023/03/20 12:06:14;;;;;;;1.50;0.98;;;;;;;20.54;28.07;99921.66;5344021;26;33733;-88
2023/03/20 12:08:54;;;;;;;7.60;1.20;;;;;;;20.15;28.52;99927.47;5325928;26;32640;-89
2023/03/20 12:11:40;;;;;;;3.12;1.92;;;;;;;20.08;29.37;99928.06;5343851;26;33388;-88
2023/03/20 12:14:28;;;;;;;1.42;1.33;;;;;;;20.13;28.13;99926.75;5324929;26;32825;-89
2023/03/20 12:17:10;;;;;;;1.70;0.95;;;;;;;20.44;27.79;99925.06;5324535;26;33630;-86
2023/03/20 12:19:39;;;;;;;1.37;1.27;;;;;;;20.49;28.11;99916.66;5325353;26;33575;-89
2023/03/20 12:22:51;;;;;;;0.88;0.85;;;;;;;20.57;27.81;99911.53;5343239;26;34022;-88
2023/03/20 12:25:59;;;;;;;1.02;0.98;;;;;;;20.61;27.90;99904.09;5302175;26;32676;-89
2023/03/20 12:28:37;;;;;;;1.40;1.15;;;;;;;20.51;28.80;99905.81;5306809;26;33334;-88
2023/03/20 12:31:29;;;;;;;4.72;1.98;;;;;;;20.56;27.64;99912.50;5305547;26;33935;-81